createdAt,value
2023-05-01T00:01:00.886Z,12.07
2023-05-01T00:03:23.767Z,12.04
2023-05-01T00:05:47.575Z,12.04
2023-05-01T00:08:13.839Z,12.10
2023-05-01T00:10:37.216Z,12.14
2023-05-01T00:13:00.039Z,12.04
2023-05-01T00:15:22.868Z,12.04
2023-05-01T00:17:45.846Z,12.00
2023-05-01T00:20:09.697Z,12.02
2023-05-01T00:22:32.553Z,12.09
2023-05-01T00:24:55.198Z,12.20
2023-05-01T00:27:17.825Z,12.30
2023-05-01T00:29:42.313Z,12.45
2023-05-01T00:32:05.837Z,12.62
2023-05-01T00:34:28.968Z,12.65
2023-05-01T00:36:51.512Z,12.81
2023-05-01T00:39:14.167Z,12.72
2023-05-01T00:41:36.987Z,12.92
2023-05-01T00:44:00.182Z,13.02
2023-05-01T00:46:23.149Z,13.03
2023-05-01T00:48:46.197Z,13.05
2023-05-01T00:51:09.260Z,13.12
2023-05-01T00:53:33.719Z,13.15
2023-05-01T00:55:58.182Z,13.09
2023-05-01T00:58:21.169Z,13.06
2023-05-01T01:00:44.386Z,13.20
2023-05-01T01:03:07.677Z,13.22
2023-05-01T01:05:35.348Z,12.99
2023-05-01T01:08:32.524Z,12.98
2023-05-01T01:11:13.923Z,13.05
2023-05-01T01:13:47.128Z,13.13
2023-05-01T01:16:21.708Z,12.92
2023-05-01T01:18:51.437Z,12.92
2023-05-01T01:21:27.534Z,12.69
2023-05-01T01:24:05.327Z,12.54
2023-05-01T01:26:34.628Z,12.54
2023-05-01T01:29:40.586Z,12.50
2023-05-01T01:32:44.602Z,12.40
2023-05-01T01:35:12.821Z,12.36
2023-05-01T01:37:42.879Z,12.41
2023-05-01T01:40:11.653Z,12.50
2023-05-01T01:42:49.627Z,12.41
2023-05-01T01:45:19.303Z,12.36
2023-05-01T01:47:44.247Z,12.30
2023-05-01T01:50:10.098Z,12.29
2023-05-01T01:52:34.839Z,12.33
2023-05-01T01:55:06.448Z,12.30
2023-05-01T01:57:29.567Z,12.26
2023-05-01T01:59:55.819Z,12.24
2023-05-01T02:02:20.833Z,12.17
2023-05-01T02:04:45.529Z,12.14
2023-05-01T02:07:09.539Z,12.10
2023-05-01T02:09:34.854Z,12.07
2023-05-01T02:12:01.056Z,12.20
2023-05-01T02:14:26.974Z,12.30
2023-05-01T02:16:51.094Z,12.37
2023-05-01T02:19:15.392Z,12.31
2023-05-01T02:21:39.349Z,12.40
2023-05-01T02:24:02.789Z,12.41
2023-05-01T02:26:26.784Z,12.21
2023-05-01T02:28:50.604Z,12.13
2023-05-01T02:31:13.614Z,12.14
2023-05-01T02:33:36.395Z,12.13
2023-05-01T02:35:59.141Z,12.16
2023-05-01T02:38:21.862Z,12.16
2023-05-01T02:40:50.179Z,12.19
2023-05-01T02:43:15.745Z,12.13
2023-05-01T02:45:40.405Z,12.20
2023-05-01T02:48:06.862Z,12.21
2023-05-01T02:50:30.179Z,12.29
2023-05-01T02:52:54.218Z,12.34
2023-05-01T02:55:29.426Z,12.17
2023-05-01T02:57:52.629Z,12.26
2023-05-01T03:00:15.781Z,12.17
2023-05-01T03:02:38.689Z,12.31
2023-05-01T03:05:01.660Z,12.26
2023-05-01T03:07:24.482Z,12.27
2023-05-01T03:09:47.772Z,12.31
2023-05-01T03:12:10.763Z,12.29
2023-05-01T03:14:33.686Z,12.26
2023-05-01T03:16:56.765Z,12.26
2023-05-01T03:19:19.387Z,12.20
2023-05-01T03:21:42.079Z,12.19
2023-05-01T03:24:04.886Z,12.07
2023-05-01T03:26:28.476Z,11.99
2023-05-01T03:28:51.331Z,11.90
2023-05-01T03:31:14.544Z,11.94
2023-05-01T03:33:37.457Z,11.99
2023-05-01T03:36:05.643Z,12.02
2023-05-01T03:38:30.913Z,12.03
2023-05-01T03:41:13.850Z,11.96
2023-05-01T03:43:55.151Z,12.12
2023-05-01T03:46:38.150Z,12.12
2023-05-01T03:49:23.736Z,12.16
2023-05-01T03:52:07.558Z,12.20
2023-05-01T03:54:30.458Z,12.33
2023-05-01T03:56:55.702Z,12.42
2023-05-01T03:59:19.070Z,12.62
2023-05-01T04:01:41.968Z,12.81
2023-05-01T04:04:04.923Z,12.72
2023-05-01T04:06:28.284Z,12.99
2023-05-01T04:08:51.229Z,13.36
2023-05-01T04:11:14.041Z,13.67
2023-05-01T04:13:36.955Z,13.64
2023-05-01T04:16:00.259Z,13.88
2023-05-01T04:18:23.665Z,13.68
2023-05-01T04:20:46.622Z,14.06
2023-05-01T04:23:09.759Z,14.23
2023-05-01T04:25:32.833Z,14.73
2023-05-01T04:28:01.888Z,15.04
2023-05-01T04:30:24.751Z,15.57
2023-05-01T04:32:47.580Z,16.04
2023-05-01T04:35:10.682Z,16.62
2023-05-01T04:37:35.681Z,17.04
2023-05-01T04:40:00.883Z,16.93
2023-05-01T04:42:23.688Z,16.75
2023-05-01T04:44:47.372Z,16.15
2023-05-01T04:47:10.867Z,14.77
2023-05-01T04:49:34.172Z,14.67
2023-05-01T04:51:57.572Z,14.34
2023-05-01T04:54:25.073Z,14.22
2023-05-01T04:56:47.704Z,14.30
2023-05-01T04:59:10.369Z,14.28
2023-05-01T05:01:33.065Z,14.19
2023-05-01T05:03:55.897Z,14.01
2023-05-01T05:06:18.835Z,13.98
2023-05-01T05:08:42.196Z,13.73
2023-05-01T05:11:06.338Z,13.75
2023-05-01T05:13:38.562Z,13.74
2023-05-01T05:16:07.401Z,13.51
2023-05-01T05:18:30.059Z,13.75
2023-05-01T05:20:54.040Z,13.77
2023-05-01T05:23:17.244Z,13.71
2023-05-01T05:25:40.229Z,13.89
2023-05-01T05:28:02.837Z,14.01
2023-05-01T05:30:25.585Z,14.26
2023-05-01T05:32:48.424Z,14.80
2023-05-01T05:35:11.051Z,15.53
2023-05-01T05:37:34.200Z,15.86
2023-05-01T05:39:58.280Z,15.81
2023-05-01T05:42:21.181Z,15.84
2023-05-01T05:44:44.538Z,15.42
2023-05-01T05:47:08.571Z,15.14
2023-05-01T05:49:31.564Z,15.47
2023-05-01T05:51:54.246Z,15.96
2023-05-01T05:54:17.019Z,16.28
2023-05-01T05:56:41.100Z,17.11
2023-05-01T05:59:04.757Z,17.76
2023-05-01T06:01:27.400Z,18.59
2023-05-01T06:03:50.222Z,18.07
2023-05-01T06:06:13.243Z,17.58
2023-05-01T06:08:37.651Z,16.45
2023-05-01T06:11:02.866Z,15.87
2023-05-01T06:13:25.891Z,15.77
2023-05-01T06:15:49.096Z,16.21
2023-05-01T06:18:13.445Z,16.25
2023-05-01T06:20:37.046Z,16.25
2023-05-01T06:23:01.135Z,16.62
2023-05-01T06:25:37.491Z,16.28
2023-05-01T06:28:00.113Z,15.79
2023-05-01T06:30:22.776Z,15.90
2023-05-01T06:32:46.990Z,15.93
2023-05-01T06:35:10.528Z,16.05
2023-05-01T06:37:33.339Z,16.05
2023-05-01T06:39:56.437Z,15.71
2023-05-01T06:42:21.400Z,15.62
2023-05-01T06:44:44.192Z,15.52
2023-05-01T06:47:07.368Z,15.69
2023-05-01T06:49:30.069Z,15.80
2023-05-01T06:51:52.994Z,15.79
2023-05-01T06:54:15.622Z,16.10
2023-05-01T06:56:38.337Z,16.19
2023-05-01T06:59:01.061Z,16.01
2023-05-01T07:01:24.578Z,16.02
2023-05-01T07:03:47.748Z,16.15
2023-05-01T07:06:10.827Z,16.02
2023-05-01T07:08:33.458Z,16.60
2023-05-01T07:10:56.179Z,16.67
2023-05-01T07:13:19.598Z,16.24
2023-05-01T07:15:42.313Z,16.42
2023-05-01T07:18:08.064Z,16.55
2023-05-01T07:20:31.080Z,16.48
2023-05-01T07:22:53.928Z,16.28
2023-05-01T07:25:16.689Z,16.49
2023-05-01T07:27:40.430Z,16.63
2023-05-01T07:30:05.114Z,16.75
2023-05-01T07:32:27.820Z,16.94
2023-05-01T07:34:50.726Z,16.97
2023-05-01T07:37:13.452Z,16.90
2023-05-01T07:39:36.232Z,16.91
2023-05-01T07:41:58.824Z,16.86
2023-05-01T07:44:21.952Z,16.76
2023-05-01T07:46:44.543Z,17.04
2023-05-01T07:49:07.510Z,17.20
2023-05-01T07:51:30.975Z,17.15
2023-05-01T07:53:53.927Z,17.24
2023-05-01T07:56:16.546Z,17.03
2023-05-01T07:58:41.592Z,17.07
2023-05-01T08:01:06.347Z,17.04
2023-05-01T08:03:30.304Z,17.06
2023-05-01T08:05:53.135Z,17.14
2023-05-01T08:08:20.720Z,17.03
2023-05-01T08:10:43.496Z,17.14
2023-05-01T08:13:06.283Z,17.25
2023-05-01T08:15:29.155Z,17.04
2023-05-01T08:17:52.317Z,17.06
2023-05-01T08:20:15.116Z,17.10
2023-05-01T08:22:37.952Z,17.15
2023-05-01T08:25:00.558Z,17.45
2023-05-01T08:27:23.344Z,17.78
2023-05-01T08:29:46.040Z,18.16
2023-05-01T08:32:08.998Z,17.80
2023-05-01T08:34:31.773Z,17.63
2023-05-01T08:36:54.398Z,17.48
2023-05-01T08:39:16.953Z,17.65
2023-05-01T08:41:40.268Z,17.71
2023-05-01T08:44:03.810Z,17.45
2023-05-01T08:46:44.636Z,17.24
2023-05-01T08:49:11.550Z,17.42
2023-05-01T08:51:35.319Z,17.52
2023-05-01T08:53:59.541Z,17.31
2023-05-01T08:56:23.703Z,17.38
2023-05-01T08:58:49.861Z,17.36
2023-05-01T09:01:15.964Z,17.51
2023-05-01T09:03:39.165Z,17.58
2023-05-01T09:06:03.003Z,17.76
2023-05-01T09:08:25.667Z,17.58
2023-05-01T09:10:49.315Z,17.79
2023-05-01T09:13:12.742Z,18.00
2023-05-01T09:15:35.631Z,18.30
2023-05-01T09:18:02.974Z,18.11
2023-05-01T09:20:28.871Z,18.00
2023-05-01T09:22:52.161Z,18.28
2023-05-01T09:25:14.826Z,18.51
2023-05-01T09:27:40.621Z,18.52
2023-05-01T09:30:04.171Z,18.37
2023-05-01T09:32:30.631Z,18.30
2023-05-01T09:34:54.450Z,18.47
2023-05-01T09:37:34.126Z,18.37
2023-05-01T09:40:10.053Z,18.51
2023-05-01T09:42:34.394Z,18.48
2023-05-01T09:44:57.877Z,18.43
2023-05-01T09:47:23.797Z,18.44
2023-05-01T09:49:50.114Z,18.49
2023-05-01T09:52:13.546Z,18.82
2023-05-01T09:54:36.750Z,18.96
2023-05-01T09:56:59.425Z,18.66
2023-05-01T09:59:22.202Z,19.13
2023-05-01T10:01:47.189Z,19.02
2023-05-01T10:04:10.225Z,19.02
2023-05-01T10:06:33.125Z,18.99
2023-05-01T10:08:56.080Z,19.02
2023-05-01T10:11:18.921Z,18.91
2023-05-01T10:13:42.360Z,19.00
2023-05-01T10:16:07.834Z,19.03
2023-05-01T10:18:30.980Z,19.20
2023-05-01T10:20:53.953Z,19.35
2023-05-01T10:23:17.090Z,19.22
2023-05-01T10:25:41.925Z,19.20
2023-05-01T10:28:05.449Z,19.26
2023-05-01T10:30:30.271Z,19.00
2023-05-01T10:32:53.184Z,19.09
2023-05-01T10:35:21.644Z,19.12
2023-05-01T10:37:56.450Z,19.23
2023-05-01T10:40:47.693Z,19.43
2023-05-01T10:43:30.859Z,19.55
2023-05-01T10:46:12.874Z,19.83
2023-05-01T10:48:38.738Z,19.81
2023-05-01T10:51:12.082Z,19.72
2023-05-01T10:53:34.852Z,19.72
2023-05-01T10:55:57.508Z,19.71
2023-05-01T10:58:41.229Z,19.82
2023-05-01T11:01:28.286Z,19.86
2023-05-01T11:03:51.060Z,19.83
2023-05-01T11:06:13.805Z,20.12
2023-05-01T11:08:38.534Z,19.90
2023-05-01T11:11:27.228Z,19.86
2023-05-01T11:14:07.249Z,19.93
2023-05-01T11:16:46.512Z,19.83
2023-05-01T11:19:33.243Z,20.09
2023-05-01T11:21:57.155Z,20.09
2023-05-01T11:24:20.246Z,20.12
2023-05-01T11:26:43.436Z,20.36
2023-05-01T11:29:07.169Z,20.30
2023-05-01T11:31:30.025Z,20.47
2023-05-01T11:33:55.898Z,20.70
2023-05-01T11:36:20.414Z,20.63
2023-05-01T11:38:59.745Z,20.58
2023-05-01T11:41:24.087Z,20.80
2023-05-01T11:43:58.218Z,20.81
2023-05-01T11:46:31.983Z,20.78
2023-05-01T11:48:59.351Z,20.77
2023-05-01T11:51:22.492Z,20.99
2023-05-01T11:54:04.764Z,20.85
2023-05-01T11:56:28.153Z,20.90
2023-05-01T11:58:50.791Z,21.01
2023-05-01T12:01:14.361Z,21.26
2023-05-01T12:03:44.426Z,21.22
2023-05-01T12:06:07.376Z,21.08
2023-05-01T12:08:30.185Z,20.85
2023-05-01T12:10:57.487Z,21.21
2023-05-01T12:13:21.125Z,21.05
2023-05-01T12:15:47.053Z,20.88
2023-05-01T12:18:10.066Z,20.80
2023-05-01T12:20:42.027Z,20.84
2023-05-01T12:23:06.930Z,20.92
2023-05-01T12:25:32.078Z,20.98
2023-05-01T12:27:55.613Z,20.95
2023-05-01T12:30:25.773Z,20.94
2023-05-01T12:32:48.680Z,21.21
2023-05-01T12:35:17.409Z,21.36
2023-05-01T12:37:40.116Z,21.47
2023-05-01T12:40:04.472Z,21.39
2023-05-01T12:42:27.593Z,21.35
2023-05-01T12:45:01.072Z,21.26
2023-05-01T12:47:26.799Z,21.02
2023-05-01T12:49:49.635Z,20.96
2023-05-01T12:52:12.527Z,20.90
2023-05-01T12:54:39.739Z,20.83
2023-05-01T12:57:09.800Z,20.91
2023-05-01T12:59:32.811Z,21.06
2023-05-01T13:02:03.528Z,21.18
2023-05-01T13:04:27.294Z,21.56
2023-05-01T13:06:50.366Z,21.77
2023-05-01T13:09:17.594Z,22.01
2023-05-01T13:11:40.282Z,22.12
2023-05-01T13:14:08.917Z,21.94
2023-05-01T13:16:31.753Z,22.14
2023-05-01T13:18:54.693Z,22.22
2023-05-01T13:21:22.467Z,22.02
2023-05-01T13:23:59.258Z,22.05
2023-05-01T13:26:27.557Z,22.16
2023-05-01T13:29:15.021Z,21.74
2023-05-01T13:31:44.813Z,21.73
2023-05-01T13:34:08.423Z,21.53
2023-05-01T13:36:34.659Z,21.76
2023-05-01T13:38:57.612Z,21.70
2023-05-01T13:41:21.721Z,21.54
2023-05-01T13:43:44.568Z,21.35
2023-05-01T13:46:07.286Z,21.42
2023-05-01T13:48:31.018Z,21.56
2023-05-01T13:50:53.834Z,21.45
2023-05-01T13:53:16.894Z,21.46
2023-05-01T13:55:41.631Z,21.69
2023-05-01T13:58:04.497Z,21.78
2023-05-01T14:00:27.507Z,21.80
2023-05-01T14:02:50.372Z,21.78
2023-05-01T14:05:13.254Z,21.83
2023-05-01T14:07:45.147Z,21.78
2023-05-01T14:10:09.542Z,21.87
2023-05-01T14:12:33.004Z,21.61
2023-05-01T14:14:55.933Z,21.60
2023-05-01T14:17:19.511Z,21.50
2023-05-01T14:19:42.607Z,21.46
2023-05-01T14:22:07.911Z,21.49
2023-05-01T14:24:30.925Z,21.40
2023-05-01T14:26:53.823Z,21.53
2023-05-01T14:29:41.332Z,21.43
2023-05-01T14:32:25.373Z,21.33
2023-05-01T14:34:48.174Z,21.26
2023-05-01T14:37:12.164Z,21.21
2023-05-01T14:39:34.983Z,21.15
2023-05-01T14:41:58.440Z,21.19
2023-05-01T14:44:26.200Z,21.18
2023-05-01T14:46:52.003Z,21.28
2023-05-01T14:49:22.907Z,21.29
2023-05-01T14:51:46.053Z,21.38
2023-05-01T14:54:11.496Z,21.39
2023-05-01T14:56:34.328Z,21.38
2023-05-01T14:58:57.148Z,21.29
2023-05-01T15:01:20.322Z,21.30
2023-05-01T15:03:43.924Z,21.29
2023-05-01T15:06:07.854Z,21.35
2023-05-01T15:08:32.488Z,21.43
2023-05-01T15:10:55.213Z,21.36
2023-05-01T15:13:18.096Z,21.26
2023-05-01T15:15:40.811Z,21.30
2023-05-01T15:18:04.271Z,21.21
2023-05-01T15:20:27.024Z,21.16
2023-05-01T15:22:50.104Z,21.19
2023-05-01T15:25:12.769Z,21.30
2023-05-01T15:27:35.961Z,21.33
2023-05-01T15:29:59.093Z,21.30
2023-05-01T15:32:21.957Z,21.33
2023-05-01T15:34:45.147Z,21.26
2023-05-01T15:37:07.767Z,21.26
2023-05-01T15:39:31.095Z,21.38
2023-05-01T15:41:54.046Z,21.23
2023-05-01T15:44:16.950Z,21.25
2023-05-01T15:46:40.148Z,21.33
2023-05-01T15:49:03.389Z,21.38
2023-05-01T15:51:26.137Z,21.19
2023-05-01T15:53:48.738Z,21.13
2023-05-01T15:56:11.536Z,20.99
2023-05-01T15:58:34.562Z,20.85
2023-05-01T16:00:57.286Z,20.81
2023-05-01T16:03:20.218Z,20.71
2023-05-01T16:05:47.189Z,20.65
2023-05-01T16:08:10.335Z,20.56
2023-05-01T16:10:37.358Z,20.48
2023-05-01T16:13:00.043Z,20.53
2023-05-01T16:15:23.098Z,20.47
2023-05-01T16:17:46.579Z,20.53
2023-05-01T16:20:13.344Z,20.40
2023-05-01T16:22:41.984Z,20.46
2023-05-01T16:25:05.063Z,20.29
2023-05-01T16:27:27.750Z,20.20
2023-05-01T16:29:51.354Z,20.16
2023-05-01T16:32:16.653Z,20.17
2023-05-01T16:34:40.371Z,20.15
2023-05-01T16:37:03.063Z,20.09
2023-05-01T16:39:25.804Z,20.08
2023-05-01T16:41:52.396Z,19.99
2023-05-01T16:44:16.927Z,19.92
2023-05-01T16:46:42.041Z,19.86
2023-05-01T16:49:05.134Z,19.81
2023-05-01T16:51:28.371Z,19.77
2023-05-01T16:53:51.127Z,19.70
2023-05-01T16:56:13.802Z,19.61
2023-05-01T16:58:37.231Z,19.58
2023-05-01T17:01:00.181Z,19.49
2023-05-01T17:03:23.081Z,19.47
2023-05-01T17:05:45.867Z,19.46
2023-05-01T17:08:09.030Z,19.30
2023-05-01T17:10:31.707Z,19.23
2023-05-01T17:12:54.605Z,19.07
2023-05-01T17:15:18.282Z,19.06
2023-05-01T17:17:41.446Z,18.98
2023-05-01T17:20:05.491Z,18.92
2023-05-01T17:22:29.206Z,18.85
2023-05-01T17:24:52.017Z,18.77
2023-05-01T17:27:14.943Z,18.76
2023-05-01T17:29:39.216Z,18.71
2023-05-01T17:32:02.571Z,18.58
2023-05-01T17:34:25.334Z,18.51
2023-05-01T17:36:48.145Z,18.43
2023-05-01T17:39:10.824Z,18.36
2023-05-01T17:41:33.746Z,18.37
2023-05-01T17:43:57.174Z,18.30
2023-05-01T17:46:20.392Z,18.21
2023-05-01T17:48:43.263Z,18.13
2023-05-01T17:51:05.968Z,18.10
2023-05-01T17:53:28.838Z,17.99
2023-05-01T17:55:52.184Z,17.94
2023-05-01T17:58:15.081Z,17.87
2023-05-01T18:00:37.845Z,17.87
2023-05-01T18:03:00.836Z,17.73
2023-05-01T18:05:23.718Z,17.63
2023-05-01T18:07:46.695Z,17.62
2023-05-01T18:10:10.460Z,17.58
2023-05-01T18:12:33.616Z,17.52
2023-05-01T18:14:56.508Z,17.41
2023-05-01T18:17:22.111Z,17.35
2023-05-01T18:19:45.557Z,17.32
2023-05-01T18:22:08.729Z,17.28
2023-05-01T18:24:31.879Z,17.24
2023-05-01T18:26:54.711Z,17.18
2023-05-01T18:29:17.388Z,17.14
2023-05-01T18:31:40.200Z,17.06
2023-05-01T18:34:04.167Z,17.02
2023-05-01T18:36:27.477Z,16.96
2023-05-01T18:38:50.127Z,17.00
2023-05-01T18:41:12.881Z,16.94
2023-05-01T18:43:36.612Z,16.90
2023-05-01T18:46:00.621Z,16.79
2023-05-01T18:48:23.558Z,16.76
2023-05-01T18:50:54.130Z,16.75
2023-05-01T18:53:20.647Z,16.72
2023-05-01T18:55:43.288Z,16.70
2023-05-01T18:58:06.183Z,16.69
2023-05-01T19:00:29.746Z,16.59
2023-05-01T19:02:53.217Z,16.66
2023-05-01T19:05:16.311Z,16.72
2023-05-01T19:07:39.445Z,16.69
2023-05-01T19:10:03.150Z,16.60
2023-05-01T19:12:27.452Z,16.62
2023-05-01T19:14:50.459Z,16.56
2023-05-01T19:17:13.393Z,16.58
2023-05-01T19:19:36.559Z,16.44
2023-05-01T19:21:59.655Z,16.44
2023-05-01T19:24:22.662Z,16.31
2023-05-01T19:26:45.683Z,16.32
2023-05-01T19:29:08.420Z,16.36
2023-05-01T19:31:31.729Z,16.31
2023-05-01T19:33:55.290Z,16.33
2023-05-01T19:36:18.390Z,16.24
2023-05-01T19:38:41.429Z,16.32
2023-05-01T19:41:04.791Z,16.22
2023-05-01T19:43:28.158Z,16.24
2023-05-01T19:45:51.281Z,16.14
2023-05-01T19:48:14.220Z,15.91
2023-05-01T19:50:37.232Z,15.96
2023-05-01T19:52:59.934Z,16.05
2023-05-01T19:55:22.944Z,16.02
2023-05-01T19:57:46.067Z,16.04
2023-05-01T20:00:09.582Z,15.94
2023-05-01T20:02:35.847Z,15.93
2023-05-01T20:04:58.706Z,15.87
2023-05-01T20:07:22.713Z,15.80
2023-05-01T20:09:46.000Z,15.79
2023-05-01T20:12:08.988Z,15.79
2023-05-01T20:14:34.019Z,15.66
2023-05-01T20:16:57.184Z,15.70
2023-05-01T20:19:20.699Z,15.63
2023-05-01T20:21:43.431Z,15.60
2023-05-01T20:24:06.190Z,15.49
2023-05-01T20:26:29.054Z,15.42
2023-05-01T20:28:52.324Z,15.31
2023-05-01T20:31:15.165Z,15.38
2023-05-01T20:33:38.156Z,15.35
2023-05-01T20:36:00.865Z,15.35
2023-05-01T20:38:24.330Z,15.24
2023-05-01T20:40:47.056Z,15.29
2023-05-01T20:43:09.759Z,15.28
2023-05-01T20:45:32.705Z,15.18
2023-05-01T20:47:55.566Z,15.11
2023-05-01T20:50:18.369Z,15.04
2023-05-01T20:52:41.408Z,15.09
2023-05-01T20:55:04.144Z,15.08
2023-05-01T20:57:27.793Z,15.14
2023-05-01T20:59:50.966Z,15.18
2023-05-01T21:02:14.734Z,14.97
2023-05-01T21:04:38.136Z,14.97
2023-05-01T21:07:00.824Z,15.02
2023-05-01T21:09:23.461Z,14.94
2023-05-01T21:11:46.171Z,14.91
2023-05-01T21:14:08.897Z,14.99
2023-05-01T21:16:33.936Z,15.02
2023-05-01T21:18:56.549Z,15.04
2023-05-01T21:21:19.448Z,14.92
2023-05-01T21:23:50.699Z,14.85
2023-05-01T21:26:14.235Z,14.85
2023-05-01T21:28:43.682Z,14.73
2023-05-01T21:31:06.522Z,14.67
2023-05-01T21:33:29.580Z,14.53
2023-05-01T21:35:52.313Z,14.53
2023-05-01T21:38:16.109Z,14.49
2023-05-01T21:40:42.864Z,14.50
2023-05-01T21:43:06.721Z,14.46
2023-05-01T21:45:29.637Z,14.50
2023-05-01T21:47:52.470Z,14.53
2023-05-01T21:50:16.805Z,14.50
2023-05-01T21:52:40.107Z,14.59
2023-05-01T21:55:04.261Z,14.53
2023-05-01T21:57:27.058Z,14.66
2023-05-01T21:59:49.921Z,14.67
2023-05-01T22:02:12.730Z,14.57
2023-05-01T22:04:36.001Z,14.50
2023-05-01T22:06:58.737Z,14.56
2023-05-01T22:09:21.420Z,14.61
2023-05-01T22:11:44.050Z,14.40
2023-05-01T22:14:11.020Z,14.34
2023-05-01T22:16:34.131Z,14.44
2023-05-01T22:18:57.652Z,14.36
2023-05-01T22:21:21.042Z,14.32
2023-05-01T22:23:43.692Z,14.40
2023-05-01T22:26:06.247Z,14.47
2023-05-01T22:28:29.223Z,14.43
2023-05-01T22:30:52.080Z,14.34
2023-05-01T22:33:14.854Z,14.25
2023-05-01T22:35:37.483Z,14.30
2023-05-01T22:38:00.143Z,14.25
2023-05-01T22:40:23.002Z,14.26
2023-05-01T22:42:47.070Z,14.16
2023-05-01T22:45:10.531Z,14.09
2023-05-01T22:47:33.191Z,13.95
2023-05-01T22:49:56.121Z,13.94
2023-05-01T22:52:18.918Z,13.94
2023-05-01T22:54:41.562Z,13.98
2023-05-01T22:57:04.282Z,13.98
2023-05-01T22:59:27.215Z,13.88
2023-05-01T23:01:49.977Z,13.86
2023-05-01T23:04:14.388Z,13.79
2023-05-01T23:06:37.742Z,13.85
2023-05-01T23:09:00.374Z,13.79
2023-05-01T23:11:26.147Z,13.77
2023-05-01T23:13:50.037Z,13.68
2023-05-01T23:16:16.020Z,13.63
2023-05-01T23:18:39.678Z,13.57
2023-05-01T23:21:03.366Z,13.58
2023-05-01T23:23:34.498Z,13.60
2023-05-01T23:25:57.789Z,13.57
2023-05-01T23:28:22.784Z,13.61
2023-05-01T23:30:49.169Z,13.55
2023-05-01T23:33:12.660Z,13.63
2023-05-01T23:35:35.768Z,13.60
2023-05-01T23:37:58.301Z,13.57
2023-05-01T23:40:21.172Z,13.68
2023-05-01T23:42:44.239Z,13.55
2023-05-01T23:45:08.317Z,13.61
2023-05-01T23:47:31.147Z,13.84
2023-05-01T23:49:54.035Z,13.78
2023-05-01T23:52:16.632Z,13.78
2023-05-01T23:54:39.535Z,13.82
2023-05-01T23:57:02.605Z,13.85
2023-05-01T23:59:25.451Z,13.86
